sensor_id;sensor_type;location;lat;lon;timestamp;temperature;humidity
10812;DHT22;5458;51.496;7.334;2023-05-07T00:01:48;16.80;99.90
10812;DHT22;5458;51.496;7.334;2023-05-07T00:04:14;16.80;99.90
10812;DHT22;5458;51.496;7.334;2023-05-07T00:06:39;16.80;99.90
10812;DHT22;5458;51.496;7.334;2023-05-07T00:09:06;16.80;99.90
10812;DHT22;5458;51.496;7.334;2023-05-07T00:11:32;16.70;99.90
10812;DHT22;5458;51.496;7.334;2023-05-07T00:13:57;16.70;99.90
10812;DHT22;5458;51.496;7.334;2023-05-07T00:16:23;16.70;99.90
10812;DHT22;5458;51.496;7.334;2023-05-07T00:18:49;16.70;99.90
10812;DHT22;5458;51.496;7.334;2023-05-07T00:21:14;16.70;99.90
10812;DHT22;5458;51.496;7.334;2023-05-07T00:23:40;16.70;99.90
10812;DHT22;5458;51.496;7.334;2023-05-07T00:26:05;16.70;99.90
10812;DHT22;5458;51.496;7.334;2023-05-07T00:28:31;16.70;99.90
10812;DHT22;5458;51.496;7.334;2023-05-07T00:30:56;16.70;99.90
10812;DHT22;5458;51.496;7.334;2023-05-07T00:33:22;16.70;99.90
10812;DHT22;5458;51.496;7.334;2023-05-07T00:35:48;16.70;99.90
10812;DHT22;5458;51.496;7.334;2023-05-07T00:38:14;16.70;99.90
10812;DHT22;5458;51.496;7.334;2023-05-07T00:40:40;16.70;99.90
10812;DHT22;5458;51.496;7.334;2023-05-07T00:43:05;16.70;99.90
10812;DHT22;5458;51.496;7.334;2023-05-07T00:45:32;16.60;99.90
10812;DHT22;5458;51.496;7.334;2023-05-07T00:48:00;16.60;99.90
10812;DHT22;5458;51.496;7.334;2023-05-07T00:50:27;16.70;99.90
10812;DHT22;5458;51.496;7.334;2023-05-07T00:52:53;16.70;99.90
10812;DHT22;5458;51.496;7.334;2023-05-07T00:55:21;16.70;99.90
10812;DHT22;5458;51.496;7.334;2023-05-07T00:57:47;16.70;99.90
10812;DHT22;5458;51.496;7.334;2023-05-07T01:00:13;16.70;99.90
10812;DHT22;5458;51.496;7.334;2023-05-07T01:02:39;16.70;99.90
10812;DHT22;5458;51.496;7.334;2023-05-07T01:05:06;16.70;99.90
10812;DHT22;5458;51.496;7.334;2023-05-07T01:07:33;16.70;99.90
10812;DHT22;5458;51.496;7.334;2023-05-07T01:10:00;16.60;99.90
10812;DHT22;5458;51.496;7.334;2023-05-07T01:12:26;16.60;99.90
10812;DHT22;5458;51.496;7.334;2023-05-07T01:14:53;16.60;99.90
10812;DHT22;5458;51.496;7.334;2023-05-07T01:17:19;16.60;99.90
10812;DHT22;5458;51.496;7.334;2023-05-07T01:19:44;16.50;99.90
10812;DHT22;5458;51.496;7.334;2023-05-07T01:22:10;16.50;99.90
10812;DHT22;5458;51.496;7.334;2023-05-07T01:24:37;16.50;99.90
10812;DHT22;5458;51.496;7.334;2023-05-07T01:27:03;16.40;99.90
10812;DHT22;5458;51.496;7.334;2023-05-07T01:29:29;16.40;99.90
10812;DHT22;5458;51.496;7.334;2023-05-07T01:31:58;16.40;99.90
10812;DHT22;5458;51.496;7.334;2023-05-07T01:34:25;16.40;99.90
10812;DHT22;5458;51.496;7.334;2023-05-07T01:36:53;16.40;99.90
10812;DHT22;5458;51.496;7.334;2023-05-07T01:39:27;16.40;99.90
10812;DHT22;5458;51.496;7.334;2023-05-07T01:41:55;16.40;99.90
10812;DHT22;5458;51.496;7.334;2023-05-07T01:44:21;16.40;99.90
10812;DHT22;5458;51.496;7.334;2023-05-07T01:46:47;16.40;99.90
10812;DHT22;5458;51.496;7.334;2023-05-07T01:49:14;16.30;99.90
10812;DHT22;5458;51.496;7.334;2023-05-07T01:51:40;16.30;99.90
10812;DHT22;5458;51.496;7.334;2023-05-07T01:54:05;16.30;99.90
10812;DHT22;5458;51.496;7.334;2023-05-07T01:56:32;16.30;99.90
10812;DHT22;5458;51.496;7.334;2023-05-07T01:58:57;16.30;99.90
10812;DHT22;5458;51.496;7.334;2023-05-07T02:01:23;16.30;99.90
10812;DHT22;5458;51.496;7.334;2023-05-07T02:03:49;16.30;99.90
10812;DHT22;5458;51.496;7.334;2023-05-07T02:06:14;16.30;99.90
10812;DHT22;5458;51.496;7.334;2023-05-07T02:08:40;16.30;99.90
10812;DHT22;5458;51.496;7.334;2023-05-07T02:11:06;16.30;99.90
10812;DHT22;5458;51.496;7.334;2023-05-07T02:13:33;16.30;99.90
10812;DHT22;5458;51.496;7.334;2023-05-07T02:15:59;16.30;99.90
10812;DHT22;5458;51.496;7.334;2023-05-07T02:18:25;16.30;99.90
10812;DHT22;5458;51.496;7.334;2023-05-07T02:20:50;16.20;99.90
10812;DHT22;5458;51.496;7.334;2023-05-07T02:23:16;16.20;99.90
10812;DHT22;5458;51.496;7.334;2023-05-07T02:25:42;16.20;99.90
10812;DHT22;5458;51.496;7.334;2023-05-07T02:28:07;16.10;99.90
10812;DHT22;5458;51.496;7.334;2023-05-07T02:30:33;16.10;99.90
10812;DHT22;5458;51.496;7.334;2023-05-07T02:32:58;16.10;99.90
10812;DHT22;5458;51.496;7.334;2023-05-07T02:35:25;16.10;99.90
10812;DHT22;5458;51.496;7.334;2023-05-07T02:37:51;16.10;99.90
10812;DHT22;5458;51.496;7.334;2023-05-07T02:40:16;16.10;99.90
10812;DHT22;5458;51.496;7.334;2023-05-07T02:42:42;16.10;99.90
10812;DHT22;5458;51.496;7.334;2023-05-07T02:45:08;16.10;99.90
10812;DHT22;5458;51.496;7.334;2023-05-07T02:47:34;16.10;99.90
10812;DHT22;5458;51.496;7.334;2023-05-07T02:49:59;16.10;99.90
10812;DHT22;5458;51.496;7.334;2023-05-07T02:52:25;16.10;99.90
10812;DHT22;5458;51.496;7.334;2023-05-07T02:54:50;16.10;99.90
10812;DHT22;5458;51.496;7.334;2023-05-07T02:57:16;16.10;99.90
10812;DHT22;5458;51.496;7.334;2023-05-07T02:59:42;16.10;99.90
10812;DHT22;5458;51.496;7.334;2023-05-07T03:02:08;16.10;99.90
10812;DHT22;5458;51.496;7.334;2023-05-07T03:04:33;16.10;99.90
10812;DHT22;5458;51.496;7.334;2023-05-07T03:06:59;16.10;99.90
10812;DHT22;5458;51.496;7.334;2023-05-07T03:09:24;16.10;99.90
10812;DHT22;5458;51.496;7.334;2023-05-07T03:11:50;16.10;99.90
10812;DHT22;5458;51.496;7.334;2023-05-07T03:14:15;16.10;99.90
10812;DHT22;5458;51.496;7.334;2023-05-07T03:16:41;16.10;99.90
10812;DHT22;5458;51.496;7.334;2023-05-07T03:19:06;16.10;99.90
10812;DHT22;5458;51.496;7.334;2023-05-07T03:21:32;16.10;99.90
10812;DHT22;5458;51.496;7.334;2023-05-07T03:23:59;16.10;99.90
10812;DHT22;5458;51.496;7.334;2023-05-07T03:26:25;16.00;99.90
10812;DHT22;5458;51.496;7.334;2023-05-07T03:28:51;16.00;99.90
10812;DHT22;5458;51.496;7.334;2023-05-07T03:31:16;16.00;99.90
10812;DHT22;5458;51.496;7.334;2023-05-07T03:36:17;16.00;99.90
10812;DHT22;5458;51.496;7.334;2023-05-07T03:38:43;16.00;99.90
10812;DHT22;5458;51.496;7.334;2023-05-07T03:41:08;16.00;99.90
10812;DHT22;5458;51.496;7.334;2023-05-07T03:43:34;16.00;99.90
10812;DHT22;5458;51.496;7.334;2023-05-07T03:46:00;16.00;99.90
10812;DHT22;5458;51.496;7.334;2023-05-07T03:48:25;16.00;99.90
10812;DHT22;5458;51.496;7.334;2023-05-07T03:50:51;16.00;99.90
10812;DHT22;5458;51.496;7.334;2023-05-07T03:53:17;15.90;99.90
10812;DHT22;5458;51.496;7.334;2023-05-07T03:55:42;15.90;99.90
10812;DHT22;5458;51.496;7.334;2023-05-07T03:58:08;15.90;99.90
10812;DHT22;5458;51.496;7.334;2023-05-07T04:00:33;15.90;99.90
10812;DHT22;5458;51.496;7.334;2023-05-07T04:03:03;15.80;99.90
10812;DHT22;5458;51.496;7.334;2023-05-07T04:05:30;15.80;99.90
10812;DHT22;5458;51.496;7.334;2023-05-07T04:07:55;15.90;99.90
10812;DHT22;5458;51.496;7.334;2023-05-07T04:10:21;15.80;99.90
10812;DHT22;5458;51.496;7.334;2023-05-07T04:12:47;15.90;99.90
10812;DHT22;5458;51.496;7.334;2023-05-07T04:15:12;15.90;99.90
10812;DHT22;5458;51.496;7.334;2023-05-07T04:17:38;15.90;99.90
10812;DHT22;5458;51.496;7.334;2023-05-07T04:20:04;15.90;99.90
10812;DHT22;5458;51.496;7.334;2023-05-07T04:22:32;15.90;99.90
10812;DHT22;5458;51.496;7.334;2023-05-07T04:24:58;15.80;99.90
10812;DHT22;5458;51.496;7.334;2023-05-07T04:27:23;15.90;99.90
10812;DHT22;5458;51.496;7.334;2023-05-07T04:29:49;15.90;99.90
10812;DHT22;5458;51.496;7.334;2023-05-07T04:32:14;15.90;99.90
10812;DHT22;5458;51.496;7.334;2023-05-07T04:34:40;15.90;99.90
10812;DHT22;5458;51.496;7.334;2023-05-07T04:37:06;15.90;99.90
10812;DHT22;5458;51.496;7.334;2023-05-07T04:39:32;16.00;99.90
10812;DHT22;5458;51.496;7.334;2023-05-07T04:42:00;16.00;99.90
10812;DHT22;5458;51.496;7.334;2023-05-07T04:44:26;16.00;99.90
10812;DHT22;5458;51.496;7.334;2023-05-07T04:46:51;16.00;99.90
10812;DHT22;5458;51.496;7.334;2023-05-07T04:49:17;16.00;99.90
10812;DHT22;5458;51.496;7.334;2023-05-07T04:51:42;16.10;99.90
10812;DHT22;5458;51.496;7.334;2023-05-07T04:54:08;16.10;99.90
10812;DHT22;5458;51.496;7.334;2023-05-07T04:56:33;16.10;99.90
10812;DHT22;5458;51.496;7.334;2023-05-07T04:58:59;16.10;99.90
10812;DHT22;5458;51.496;7.334;2023-05-07T05:01:25;16.20;99.90
10812;DHT22;5458;51.496;7.334;2023-05-07T05:03:50;16.20;99.90
10812;DHT22;5458;51.496;7.334;2023-05-07T05:06:16;16.20;99.90
10812;DHT22;5458;51.496;7.334;2023-05-07T05:08:41;16.30;99.90
10812;DHT22;5458;51.496;7.334;2023-05-07T05:11:07;16.40;99.90
10812;DHT22;5458;51.496;7.334;2023-05-07T05:13:32;16.50;99.90
10812;DHT22;5458;51.496;7.334;2023-05-07T05:15:58;16.60;99.90
10812;DHT22;5458;51.496;7.334;2023-05-07T05:18:24;16.60;99.90
10812;DHT22;5458;51.496;7.334;2023-05-07T05:20:51;16.70;99.90
10812;DHT22;5458;51.496;7.334;2023-05-07T05:23:17;16.80;99.90
10812;DHT22;5458;51.496;7.334;2023-05-07T05:25:42;16.80;99.90
10812;DHT22;5458;51.496;7.334;2023-05-07T05:28:08;17.10;99.90
10812;DHT22;5458;51.496;7.334;2023-05-07T05:30:33;17.30;99.90
10812;DHT22;5458;51.496;7.334;2023-05-07T05:32:59;17.50;99.90
10812;DHT22;5458;51.496;7.334;2023-05-07T05:35:25;17.70;99.90
10812;DHT22;5458;51.496;7.334;2023-05-07T05:37:50;18.20;99.90
10812;DHT22;5458;51.496;7.334;2023-05-07T05:40:16;19.20;99.90
10812;DHT22;5458;51.496;7.334;2023-05-07T05:42:42;20.90;99.90
10812;DHT22;5458;51.496;7.334;2023-05-07T05:45:08;22.50;99.90
10812;DHT22;5458;51.496;7.334;2023-05-07T05:47:33;23.80;99.90
10812;DHT22;5458;51.496;7.334;2023-05-07T05:49:59;24.30;99.90
10812;DHT22;5458;51.496;7.334;2023-05-07T05:52:25;23.80;99.90
10812;DHT22;5458;51.496;7.334;2023-05-07T05:54:50;23.00;99.90
10812;DHT22;5458;51.496;7.334;2023-05-07T05:57:16;22.40;99.90
10812;DHT22;5458;51.496;7.334;2023-05-07T05:59:42;22.20;99.90
10812;DHT22;5458;51.496;7.334;2023-05-07T06:02:07;22.20;99.90
10812;DHT22;5458;51.496;7.334;2023-05-07T06:04:33;22.20;99.90
10812;DHT22;5458;51.496;7.334;2023-05-07T06:06:59;22.20;99.90
10812;DHT22;5458;51.496;7.334;2023-05-07T06:09:24;22.40;99.90
10812;DHT22;5458;51.496;7.334;2023-05-07T06:11:50;22.60;99.90
10812;DHT22;5458;51.496;7.334;2023-05-07T06:14:15;23.00;99.90
10812;DHT22;5458;51.496;7.334;2023-05-07T06:16:41;23.20;99.90
10812;DHT22;5458;51.496;7.334;2023-05-07T06:19:07;23.10;99.90
10812;DHT22;5458;51.496;7.334;2023-05-07T06:21:32;22.80;99.90
10812;DHT22;5458;51.496;7.334;2023-05-07T06:23:58;22.50;99.90
10812;DHT22;5458;51.496;7.334;2023-05-07T06:26:23;22.20;99.90
10812;DHT22;5458;51.496;7.334;2023-05-07T06:28:49;21.80;99.90
10812;DHT22;5458;51.496;7.334;2023-05-07T06:31:16;21.50;99.90
10812;DHT22;5458;51.496;7.334;2023-05-07T06:33:43;21.20;99.90
10812;DHT22;5458;51.496;7.334;2023-05-07T06:36:09;20.90;99.90
10812;DHT22;5458;51.496;7.334;2023-05-07T06:38:35;20.60;99.90
10812;DHT22;5458;51.496;7.334;2023-05-07T06:41:00;20.50;99.90
10812;DHT22;5458;51.496;7.334;2023-05-07T06:43:26;20.30;99.90
10812;DHT22;5458;51.496;7.334;2023-05-07T06:45:51;20.30;99.90
10812;DHT22;5458;51.496;7.334;2023-05-07T06:48:17;20.40;99.90
10812;DHT22;5458;51.496;7.334;2023-05-07T06:50:42;20.30;99.90
10812;DHT22;5458;51.496;7.334;2023-05-07T06:53:08;20.20;99.90
10812;DHT22;5458;51.496;7.334;2023-05-07T06:55:34;20.00;99.90
10812;DHT22;5458;51.496;7.334;2023-05-07T06:57:59;19.90;99.90
10812;DHT22;5458;51.496;7.334;2023-05-07T07:00:27;19.80;99.90
10812;DHT22;5458;51.496;7.334;2023-05-07T07:02:54;19.80;99.90
10812;DHT22;5458;51.496;7.334;2023-05-07T07:05:20;19.90;99.90
10812;DHT22;5458;51.496;7.334;2023-05-07T07:07:45;20.00;99.90
10812;DHT22;5458;51.496;7.334;2023-05-07T07:10:20;20.10;99.90
10812;DHT22;5458;51.496;7.334;2023-05-07T07:12:46;20.10;99.90
10812;DHT22;5458;51.496;7.334;2023-05-07T07:15:13;20.10;99.90
10812;DHT22;5458;51.496;7.334;2023-05-07T07:17:38;20.20;99.90
10812;DHT22;5458;51.496;7.334;2023-05-07T07:20:05;20.10;99.90
10812;DHT22;5458;51.496;7.334;2023-05-07T07:22:30;20.00;99.90
10812;DHT22;5458;51.496;7.334;2023-05-07T07:24:56;20.10;99.90
10812;DHT22;5458;51.496;7.334;2023-05-07T07:27:21;20.10;99.90
10812;DHT22;5458;51.496;7.334;2023-05-07T07:29:47;20.10;99.90
10812;DHT22;5458;51.496;7.334;2023-05-07T07:32:13;20.30;99.90
10812;DHT22;5458;51.496;7.334;2023-05-07T07:34:38;20.60;99.90
10812;DHT22;5458;51.496;7.334;2023-05-07T07:37:04;21.00;99.90
10812;DHT22;5458;51.496;7.334;2023-05-07T07:39:34;21.30;99.90
10812;DHT22;5458;51.496;7.334;2023-05-07T07:42:00;21.50;99.90
10812;DHT22;5458;51.496;7.334;2023-05-07T07:44:28;21.50;99.90
10812;DHT22;5458;51.496;7.334;2023-05-07T07:46:53;21.50;99.90
10812;DHT22;5458;51.496;7.334;2023-05-07T07:49:19;21.60;99.90
10812;DHT22;5458;51.496;7.334;2023-05-07T07:51:45;21.70;99.90
10812;DHT22;5458;51.496;7.334;2023-05-07T07:54:10;21.50;99.90
10812;DHT22;5458;51.496;7.334;2023-05-07T07:56:36;21.40;99.90
10812;DHT22;5458;51.496;7.334;2023-05-07T07:59:02;21.20;99.90
10812;DHT22;5458;51.496;7.334;2023-05-07T08:01:29;21.10;99.90
10812;DHT22;5458;51.496;7.334;2023-05-07T08:03:55;21.20;99.90
10812;DHT22;5458;51.496;7.334;2023-05-07T08:06:23;21.30;99.90
10812;DHT22;5458;51.496;7.334;2023-05-07T08:08:48;21.50;99.90
10812;DHT22;5458;51.496;7.334;2023-05-07T08:11:14;21.60;99.90
10812;DHT22;5458;51.496;7.334;2023-05-07T08:13:40;21.60;99.90
10812;DHT22;5458;51.496;7.334;2023-05-07T08:16:05;21.60;99.90
10812;DHT22;5458;51.496;7.334;2023-05-07T08:18:31;21.30;99.90
10812;DHT22;5458;51.496;7.334;2023-05-07T08:20:57;21.30;99.90
10812;DHT22;5458;51.496;7.334;2023-05-07T08:23:22;21.10;99.90
10812;DHT22;5458;51.496;7.334;2023-05-07T08:25:49;21.00;99.90
10812;DHT22;5458;51.496;7.334;2023-05-07T08:28:15;20.70;99.90
10812;DHT22;5458;51.496;7.334;2023-05-07T08:30:40;20.60;99.90
10812;DHT22;5458;51.496;7.334;2023-05-07T08:33:08;20.70;99.90
10812;DHT22;5458;51.496;7.334;2023-05-07T08:35:33;20.80;99.90
10812;DHT22;5458;51.496;7.334;2023-05-07T08:37:59;21.10;99.90
10812;DHT22;5458;51.496;7.334;2023-05-07T08:40:25;21.30;99.90
10812;DHT22;5458;51.496;7.334;2023-05-07T08:42:52;21.50;99.90
10812;DHT22;5458;51.496;7.334;2023-05-07T08:45:19;21.30;99.90
10812;DHT22;5458;51.496;7.334;2023-05-07T08:47:47;21.20;99.90
10812;DHT22;5458;51.496;7.334;2023-05-07T08:50:16;21.30;99.90
10812;DHT22;5458;51.496;7.334;2023-05-07T08:52:42;21.30;99.90
10812;DHT22;5458;51.496;7.334;2023-05-07T08:55:08;21.40;99.90
10812;DHT22;5458;51.496;7.334;2023-05-07T08:57:34;21.50;99.90
10812;DHT22;5458;51.496;7.334;2023-05-07T09:00:01;21.70;99.90
10812;DHT22;5458;51.496;7.334;2023-05-07T09:02:26;22.00;99.90
10812;DHT22;5458;51.496;7.334;2023-05-07T09:04:52;22.20;99.90
10812;DHT22;5458;51.496;7.334;2023-05-07T09:07:19;22.40;99.90
10812;DHT22;5458;51.496;7.334;2023-05-07T09:09:46;22.70;99.90
10812;DHT22;5458;51.496;7.334;2023-05-07T09:12:12;22.60;99.90
10812;DHT22;5458;51.496;7.334;2023-05-07T09:14:38;22.50;99.90
10812;DHT22;5458;51.496;7.334;2023-05-07T09:17:05;22.40;99.90
10812;DHT22;5458;51.496;7.334;2023-05-07T09:19:31;22.30;99.90
10812;DHT22;5458;51.496;7.334;2023-05-07T09:22:04;22.30;99.90
10812;DHT22;5458;51.496;7.334;2023-05-07T09:24:31;22.40;99.90
10812;DHT22;5458;51.496;7.334;2023-05-07T09:27:01;22.30;99.90
10812;DHT22;5458;51.496;7.334;2023-05-07T09:29:28;22.30;99.90
10812;DHT22;5458;51.496;7.334;2023-05-07T09:32:07;22.00;99.90
10812;DHT22;5458;51.496;7.334;2023-05-07T09:34:34;22.00;99.90
10812;DHT22;5458;51.496;7.334;2023-05-07T09:37:04;22.10;99.90
10812;DHT22;5458;51.496;7.334;2023-05-07T09:39:43;22.30;99.90
10812;DHT22;5458;51.496;7.334;2023-05-07T09:42:09;22.60;99.90
10812;DHT22;5458;51.496;7.334;2023-05-07T09:44:37;22.80;99.90
10812;DHT22;5458;51.496;7.334;2023-05-07T09:47:06;23.00;99.90
10812;DHT22;5458;51.496;7.334;2023-05-07T09:49:36;23.30;99.90
10812;DHT22;5458;51.496;7.334;2023-05-07T09:52:04;23.30;99.90
10812;DHT22;5458;51.496;7.334;2023-05-07T09:54:35;23.20;99.90
10812;DHT22;5458;51.496;7.334;2023-05-07T09:57:04;22.90;99.90
10812;DHT22;5458;51.496;7.334;2023-05-07T09:59:31;23.10;99.90
10812;DHT22;5458;51.496;7.334;2023-05-07T10:01:59;23.40;99.90
10812;DHT22;5458;51.496;7.334;2023-05-07T10:04:25;23.80;99.90
10812;DHT22;5458;51.496;7.334;2023-05-07T10:06:51;24.10;99.90
10812;DHT22;5458;51.496;7.334;2023-05-07T10:09:18;24.40;99.90
10812;DHT22;5458;51.496;7.334;2023-05-07T10:11:44;24.60;99.90
10812;DHT22;5458;51.496;7.334;2023-05-07T10:14:10;24.70;99.90
10812;DHT22;5458;51.496;7.334;2023-05-07T10:16:36;24.80;99.70
10812;DHT22;5458;51.496;7.334;2023-05-07T10:19:03;24.70;99.00
10812;DHT22;5458;51.496;7.334;2023-05-07T10:21:30;24.70;99.70
10812;DHT22;5458;51.496;7.334;2023-05-07T10:24:10;24.50;98.10
10812;DHT22;5458;51.496;7.334;2023-05-07T10:26:44;24.50;98.40
10812;DHT22;5458;51.496;7.334;2023-05-07T10:35:00;24.40;97.80
10812;DHT22;5458;51.496;7.334;2023-05-07T10:37:26;24.20;96.50
10812;DHT22;5458;51.496;7.334;2023-05-07T10:39:52;24.30;96.70
10812;DHT22;5458;51.496;7.334;2023-05-07T10:42:18;24.40;96.30
10812;DHT22;5458;51.496;7.334;2023-05-07T10:44:44;24.50;96.90
10812;DHT22;5458;51.496;7.334;2023-05-07T10:47:15;24.60;96.40
10812;DHT22;5458;51.496;7.334;2023-05-07T10:52:20;24.40;98.50
10812;DHT22;5458;51.496;7.334;2023-05-07T10:54:46;24.40;98.20
10812;DHT22;5458;51.496;7.334;2023-05-07T10:59:56;24.20;97.30
10812;DHT22;5458;51.496;7.334;2023-05-07T11:02:22;24.20;97.60
10812;DHT22;5458;51.496;7.334;2023-05-07T11:05:22;24.10;97.70
10812;DHT22;5458;51.496;7.334;2023-05-07T11:07:59;24.10;97.40
10812;DHT22;5458;51.496;7.334;2023-05-07T11:10:50;24.20;97.70
10812;DHT22;5458;51.496;7.334;2023-05-07T11:13:16;24.20;98.20
10812;DHT22;5458;51.496;7.334;2023-05-07T11:15:46;24.30;97.80
10812;DHT22;5458;51.496;7.334;2023-05-07T11:18:16;24.30;97.10
10812;DHT22;5458;51.496;7.334;2023-05-07T11:26:10;23.80;98.70
10812;DHT22;5458;51.496;7.334;2023-05-07T11:28:38;23.80;98.90
10812;DHT22;5458;51.496;7.334;2023-05-07T11:31:04;23.80;98.70
10812;DHT22;5458;51.496;7.334;2023-05-07T11:33:31;23.60;98.70
10812;DHT22;5458;51.496;7.334;2023-05-07T11:35:57;23.60;99.20
10812;DHT22;5458;51.496;7.334;2023-05-07T11:38:23;23.60;99.20
10812;DHT22;5458;51.496;7.334;2023-05-07T11:43:16;23.50;98.40
10812;DHT22;5458;51.496;7.334;2023-05-07T11:45:42;23.50;98.80
10812;DHT22;5458;51.496;7.334;2023-05-07T11:48:07;23.40;99.00
10812;DHT22;5458;51.496;7.334;2023-05-07T11:50:33;23.20;98.90
10812;DHT22;5458;51.496;7.334;2023-05-07T11:52:58;23.20;98.90
10812;DHT22;5458;51.496;7.334;2023-05-07T11:55:24;23.20;99.70
10812;DHT22;5458;51.496;7.334;2023-05-07T11:57:51;23.20;99.60
10812;DHT22;5458;51.496;7.334;2023-05-07T12:00:17;23.20;99.90
10812;DHT22;5458;51.496;7.334;2023-05-07T12:02:45;23.30;99.90
10812;DHT22;5458;51.496;7.334;2023-05-07T12:05:11;23.30;99.90
10812;DHT22;5458;51.496;7.334;2023-05-07T12:07:36;23.30;99.90
10812;DHT22;5458;51.496;7.334;2023-05-07T12:10:08;23.20;99.90
10812;DHT22;5458;51.496;7.334;2023-05-07T12:12:40;23.20;99.90
10812;DHT22;5458;51.496;7.334;2023-05-07T12:15:07;23.10;99.90
10812;DHT22;5458;51.496;7.334;2023-05-07T12:17:33;23.10;99.90
10812;DHT22;5458;51.496;7.334;2023-05-07T12:19:59;23.10;99.80
10812;DHT22;5458;51.496;7.334;2023-05-07T12:22:25;23.10;99.90
10812;DHT22;5458;51.496;7.334;2023-05-07T12:24:58;23.20;99.90
10812;DHT22;5458;51.496;7.334;2023-05-07T12:27:24;23.20;99.90
10812;DHT22;5458;51.496;7.334;2023-05-07T12:29:50;23.00;99.40
10812;DHT22;5458;51.496;7.334;2023-05-07T12:32:20;22.80;99.60
10812;DHT22;5458;51.496;7.334;2023-05-07T12:34:49;22.80;99.90
10812;DHT22;5458;51.496;7.334;2023-05-07T12:37:16;22.80;99.90
10812;DHT22;5458;51.496;7.334;2023-05-07T12:39:47;22.70;99.60
10812;DHT22;5458;51.496;7.334;2023-05-07T12:42:19;22.60;98.50
10812;DHT22;5458;51.496;7.334;2023-05-07T12:44:45;22.70;99.20
10812;DHT22;5458;51.496;7.334;2023-05-07T12:47:11;22.90;99.60
10812;DHT22;5458;51.496;7.334;2023-05-07T12:49:38;23.00;99.20
10812;DHT22;5458;51.496;7.334;2023-05-07T12:52:04;23.00;99.70
10812;DHT22;5458;51.496;7.334;2023-05-07T12:54:32;23.20;99.20
10812;DHT22;5458;51.496;7.334;2023-05-07T12:57:10;23.20;98.50
10812;DHT22;5458;51.496;7.334;2023-05-07T12:59:42;23.10;98.80
10812;DHT22;5458;51.496;7.334;2023-05-07T13:02:08;23.10;97.70
10812;DHT22;5458;51.496;7.334;2023-05-07T13:04:35;23.10;97.50
10812;DHT22;5458;51.496;7.334;2023-05-07T13:07:01;22.90;98.00
10812;DHT22;5458;51.496;7.334;2023-05-07T13:09:26;22.90;98.10
10812;DHT22;5458;51.496;7.334;2023-05-07T13:11:54;22.80;97.90
10812;DHT22;5458;51.496;7.334;2023-05-07T13:14:20;22.70;98.30
10812;DHT22;5458;51.496;7.334;2023-05-07T13:16:46;22.60;98.40
10812;DHT22;5458;51.496;7.334;2023-05-07T13:19:12;22.50;98.60
10812;DHT22;5458;51.496;7.334;2023-05-07T13:21:38;22.40;98.80
10812;DHT22;5458;51.496;7.334;2023-05-07T13:24:03;22.40;99.30
10812;DHT22;5458;51.496;7.334;2023-05-07T13:26:30;22.30;99.90
10812;DHT22;5458;51.496;7.334;2023-05-07T13:28:56;22.30;99.90
10812;DHT22;5458;51.496;7.334;2023-05-07T13:31:21;22.30;99.40
10812;DHT22;5458;51.496;7.334;2023-05-07T13:33:47;22.10;98.90
10812;DHT22;5458;51.496;7.334;2023-05-07T13:36:13;22.00;99.50
10812;DHT22;5458;51.496;7.334;2023-05-07T13:38:41;22.00;99.90
10812;DHT22;5458;51.496;7.334;2023-05-07T13:41:07;22.00;99.90
10812;DHT22;5458;51.496;7.334;2023-05-07T13:43:32;22.00;99.90
10812;DHT22;5458;51.496;7.334;2023-05-07T13:45:59;22.00;99.90
10812;DHT22;5458;51.496;7.334;2023-05-07T13:48:25;21.90;99.90
10812;DHT22;5458;51.496;7.334;2023-05-07T13:50:51;21.80;99.70
10812;DHT22;5458;51.496;7.334;2023-05-07T13:53:17;21.80;99.70
10812;DHT22;5458;51.496;7.334;2023-05-07T13:55:44;21.80;99.70
10812;DHT22;5458;51.496;7.334;2023-05-07T13:58:09;21.80;99.90
10812;DHT22;5458;51.496;7.334;2023-05-07T14:00:35;21.80;99.90
10812;DHT22;5458;51.496;7.334;2023-05-07T14:03:01;21.80;99.90
10812;DHT22;5458;51.496;7.334;2023-05-07T14:05:26;21.90;99.90
10812;DHT22;5458;51.496;7.334;2023-05-07T14:07:56;21.80;99.60
10812;DHT22;5458;51.496;7.334;2023-05-07T14:10:22;21.70;99.30
10812;DHT22;5458;51.496;7.334;2023-05-07T14:12:48;21.70;99.90
10812;DHT22;5458;51.496;7.334;2023-05-07T14:15:13;21.70;99.40
10812;DHT22;5458;51.496;7.334;2023-05-07T14:17:39;21.60;99.20
10812;DHT22;5458;51.496;7.334;2023-05-07T14:20:05;21.70;99.50
10812;DHT22;5458;51.496;7.334;2023-05-07T14:22:32;21.70;99.90
10812;DHT22;5458;51.496;7.334;2023-05-07T14:24:57;21.70;99.90
10812;DHT22;5458;51.496;7.334;2023-05-07T14:27:23;21.70;99.90
10812;DHT22;5458;51.496;7.334;2023-05-07T14:29:49;21.70;99.90
10812;DHT22;5458;51.496;7.334;2023-05-07T14:32:17;21.70;99.90
10812;DHT22;5458;51.496;7.334;2023-05-07T14:34:43;21.70;99.80
10812;DHT22;5458;51.496;7.334;2023-05-07T14:37:09;21.70;99.90
10812;DHT22;5458;51.496;7.334;2023-05-07T14:39:35;21.70;99.90
10812;DHT22;5458;51.496;7.334;2023-05-07T14:42:01;21.60;99.90
10812;DHT22;5458;51.496;7.334;2023-05-07T14:44:27;21.60;99.90
10812;DHT22;5458;51.496;7.334;2023-05-07T14:46:52;21.70;99.90
10812;DHT22;5458;51.496;7.334;2023-05-07T14:49:18;21.70;99.90
10812;DHT22;5458;51.496;7.334;2023-05-07T14:51:44;21.70;99.90
10812;DHT22;5458;51.496;7.334;2023-05-07T14:54:11;21.80;99.90
10812;DHT22;5458;51.496;7.334;2023-05-07T14:56:36;21.80;99.90
10812;DHT22;5458;51.496;7.334;2023-05-07T14:59:02;21.80;99.90
10812;DHT22;5458;51.496;7.334;2023-05-07T15:01:28;21.90;99.90
10812;DHT22;5458;51.496;7.334;2023-05-07T15:03:54;21.90;99.90
10812;DHT22;5458;51.496;7.334;2023-05-07T15:06:21;22.00;99.90
10812;DHT22;5458;51.496;7.334;2023-05-07T15:08:47;22.00;99.90
10812;DHT22;5458;51.496;7.334;2023-05-07T15:11:13;22.00;99.90
10812;DHT22;5458;51.496;7.334;2023-05-07T15:13:39;21.80;99.90
10812;DHT22;5458;51.496;7.334;2023-05-07T15:16:04;21.80;99.90
10812;DHT22;5458;51.496;7.334;2023-05-07T15:18:30;21.70;99.90
10812;DHT22;5458;51.496;7.334;2023-05-07T15:20:56;21.70;99.90
10812;DHT22;5458;51.496;7.334;2023-05-07T15:23:23;21.60;99.90
10812;DHT22;5458;51.496;7.334;2023-05-07T15:25:48;21.60;99.90
10812;DHT22;5458;51.496;7.334;2023-05-07T15:28:14;21.60;99.90
10812;DHT22;5458;51.496;7.334;2023-05-07T15:30:39;21.50;99.90
10812;DHT22;5458;51.496;7.334;2023-05-07T15:33:05;21.40;99.90
10812;DHT22;5458;51.496;7.334;2023-05-07T15:35:31;21.40;99.90
10812;DHT22;5458;51.496;7.334;2023-05-07T15:37:56;21.30;99.90
10812;DHT22;5458;51.496;7.334;2023-05-07T15:40:22;21.40;99.90
10812;DHT22;5458;51.496;7.334;2023-05-07T15:42:48;21.30;99.90
10812;DHT22;5458;51.496;7.334;2023-05-07T15:45:14;21.30;99.90
10812;DHT22;5458;51.496;7.334;2023-05-07T15:47:39;21.20;99.90
10812;DHT22;5458;51.496;7.334;2023-05-07T15:50:05;21.20;99.90
10812;DHT22;5458;51.496;7.334;2023-05-07T15:52:31;21.10;99.90
10812;DHT22;5458;51.496;7.334;2023-05-07T15:54:58;21.10;99.90
10812;DHT22;5458;51.496;7.334;2023-05-07T15:57:24;21.10;99.90
10812;DHT22;5458;51.496;7.334;2023-05-07T15:59:50;21.10;99.90
10812;DHT22;5458;51.496;7.334;2023-05-07T16:02:16;21.10;99.90